sensor_id;sensor_type;location;lat;lon;timestamp;temperature;humidity
38209;DHT22;24016;52.102;11.584;2023-09-07T00:00:02;14.90;99.90
38209;DHT22;24016;52.102;11.584;2023-09-07T00:02:30;14.80;99.90
38209;DHT22;24016;52.102;11.584;2023-09-07T00:04:56;14.80;99.90
38209;DHT22;24016;52.102;11.584;2023-09-07T00:07:21;14.80;99.90
38209;DHT22;24016;52.102;11.584;2023-09-07T00:09:47;14.70;99.90
38209;DHT22;24016;52.102;11.584;2023-09-07T00:12:12;14.70;99.90
38209;DHT22;24016;52.102;11.584;2023-09-07T00:14:38;14.70;99.90
38209;DHT22;24016;52.102;11.584;2023-09-07T00:17:04;14.60;99.90
38209;DHT22;24016;52.102;11.584;2023-09-07T00:19:30;14.60;99.90
38209;DHT22;24016;52.102;11.584;2023-09-07T00:21:57;14.50;99.90
38209;DHT22;24016;52.102;11.584;2023-09-07T00:24:23;14.50;99.90
38209;DHT22;24016;52.102;11.584;2023-09-07T00:26:49;14.50;99.90
38209;DHT22;24016;52.102;11.584;2023-09-07T00:29:14;14.40;99.90
38209;DHT22;24016;52.102;11.584;2023-09-07T00:31:40;14.40;99.90
38209;DHT22;24016;52.102;11.584;2023-09-07T00:34:06;14.30;99.90
38209;DHT22;24016;52.102;11.584;2023-09-07T00:36:32;14.30;99.90
38209;DHT22;24016;52.102;11.584;2023-09-07T00:38:58;14.30;99.90
38209;DHT22;24016;52.102;11.584;2023-09-07T00:41:23;14.30;99.90
38209;DHT22;24016;52.102;11.584;2023-09-07T00:43:49;14.30;99.90
38209;DHT22;24016;52.102;11.584;2023-09-07T00:46:15;14.20;99.90
38209;DHT22;24016;52.102;11.584;2023-09-07T00:48:41;14.20;99.90
38209;DHT22;24016;52.102;11.584;2023-09-07T00:51:07;14.20;99.90
38209;DHT22;24016;52.102;11.584;2023-09-07T00:53:32;14.20;99.90
38209;DHT22;24016;52.102;11.584;2023-09-07T00:55:58;14.10;99.90
38209;DHT22;24016;52.102;11.584;2023-09-07T00:58:24;14.10;99.90
38209;DHT22;24016;52.102;11.584;2023-09-07T01:00:50;14.10;99.90
38209;DHT22;24016;52.102;11.584;2023-09-07T01:03:16;14.00;99.90
38209;DHT22;24016;52.102;11.584;2023-09-07T01:05:51;14.00;99.90
38209;DHT22;24016;52.102;11.584;2023-09-07T01:08:26;14.00;99.90
38209;DHT22;24016;52.102;11.584;2023-09-07T01:10:54;14.00;99.90
38209;DHT22;24016;52.102;11.584;2023-09-07T01:13:19;13.90;99.90
38209;DHT22;24016;52.102;11.584;2023-09-07T01:15:46;13.90;99.90
38209;DHT22;24016;52.102;11.584;2023-09-07T01:18:12;13.90;99.90
38209;DHT22;24016;52.102;11.584;2023-09-07T01:20:40;13.90;99.90
38209;DHT22;24016;52.102;11.584;2023-09-07T01:23:07;13.80;99.90
38209;DHT22;24016;52.102;11.584;2023-09-07T01:25:33;13.80;99.90
38209;DHT22;24016;52.102;11.584;2023-09-07T01:27:59;13.80;99.90
38209;DHT22;24016;52.102;11.584;2023-09-07T01:32:53;13.70;99.90
38209;DHT22;24016;52.102;11.584;2023-09-07T01:35:19;13.70;99.90
38209;DHT22;24016;52.102;11.584;2023-09-07T01:37:47;13.70;99.90
38209;DHT22;24016;52.102;11.584;2023-09-07T01:40:13;13.70;99.90
38209;DHT22;24016;52.102;11.584;2023-09-07T01:42:38;13.60;99.90
38209;DHT22;24016;52.102;11.584;2023-09-07T01:45:05;13.60;99.90
38209;DHT22;24016;52.102;11.584;2023-09-07T01:47:31;13.60;99.90
38209;DHT22;24016;52.102;11.584;2023-09-07T01:49:57;13.60;99.90
38209;DHT22;24016;52.102;11.584;2023-09-07T01:52:22;13.60;99.90
38209;DHT22;24016;52.102;11.584;2023-09-07T01:54:48;13.60;99.90
38209;DHT22;24016;52.102;11.584;2023-09-07T01:57:14;13.50;99.90
38209;DHT22;24016;52.102;11.584;2023-09-07T01:59:40;13.50;99.90
38209;DHT22;24016;52.102;11.584;2023-09-07T02:02:05;13.40;99.90
38209;DHT22;24016;52.102;11.584;2023-09-07T02:04:31;13.40;99.90
38209;DHT22;24016;52.102;11.584;2023-09-07T02:06:57;13.30;99.90
38209;DHT22;24016;52.102;11.584;2023-09-07T02:09:22;13.40;99.90
38209;DHT22;24016;52.102;11.584;2023-09-07T02:11:48;13.40;99.90
38209;DHT22;24016;52.102;11.584;2023-09-07T02:14:14;13.40;99.90
38209;DHT22;24016;52.102;11.584;2023-09-07T02:16:39;13.40;99.90
38209;DHT22;24016;52.102;11.584;2023-09-07T02:19:06;13.30;99.90
38209;DHT22;24016;52.102;11.584;2023-09-07T02:21:32;13.30;99.90
38209;DHT22;24016;52.102;11.584;2023-09-07T02:23:58;13.30;99.90
38209;DHT22;24016;52.102;11.584;2023-09-07T02:26:27;13.20;99.90
38209;DHT22;24016;52.102;11.584;2023-09-07T02:28:55;13.20;99.90
38209;DHT22;24016;52.102;11.584;2023-09-07T02:31:21;13.10;99.90
38209;DHT22;24016;52.102;11.584;2023-09-07T02:33:46;13.10;99.90
38209;DHT22;24016;52.102;11.584;2023-09-07T02:36:12;13.10;99.90
38209;DHT22;24016;52.102;11.584;2023-09-07T02:38:37;13.10;99.90
38209;DHT22;24016;52.102;11.584;2023-09-07T02:41:03;13.00;99.90
38209;DHT22;24016;52.102;11.584;2023-09-07T02:43:29;13.00;99.90
38209;DHT22;24016;52.102;11.584;2023-09-07T02:45:54;13.00;99.90
38209;DHT22;24016;52.102;11.584;2023-09-07T02:48:20;12.90;99.90
38209;DHT22;24016;52.102;11.584;2023-09-07T02:50:48;12.90;99.90
38209;DHT22;24016;52.102;11.584;2023-09-07T02:53:16;12.90;99.90
38209;DHT22;24016;52.102;11.584;2023-09-07T02:55:41;12.90;99.90
38209;DHT22;24016;52.102;11.584;2023-09-07T02:58:07;12.90;99.90
38209;DHT22;24016;52.102;11.584;2023-09-07T03:00:33;12.90;99.90
38209;DHT22;24016;52.102;11.584;2023-09-07T03:03:00;12.80;99.90
38209;DHT22;24016;52.102;11.584;2023-09-07T03:05:28;12.80;99.90
38209;DHT22;24016;52.102;11.584;2023-09-07T03:07:54;12.80;99.90
38209;DHT22;24016;52.102;11.584;2023-09-07T03:10:19;12.70;99.90
38209;DHT22;24016;52.102;11.584;2023-09-07T03:12:45;12.70;99.90
38209;DHT22;24016;52.102;11.584;2023-09-07T03:15:11;12.70;99.90
38209;DHT22;24016;52.102;11.584;2023-09-07T03:17:37;12.60;99.90
38209;DHT22;24016;52.102;11.584;2023-09-07T03:20:03;12.60;99.90
38209;DHT22;24016;52.102;11.584;2023-09-07T03:22:41;12.60;99.90
38209;DHT22;24016;52.102;11.584;2023-09-07T03:25:07;12.60;99.90
38209;DHT22;24016;52.102;11.584;2023-09-07T03:27:32;12.50;99.90
38209;DHT22;24016;52.102;11.584;2023-09-07T03:29:58;12.50;99.90
38209;DHT22;24016;52.102;11.584;2023-09-07T03:32:24;12.50;99.90
38209;DHT22;24016;52.102;11.584;2023-09-07T03:34:52;12.40;99.90
38209;DHT22;24016;52.102;11.584;2023-09-07T03:37:17;12.40;99.90
38209;DHT22;24016;52.102;11.584;2023-09-07T03:39:43;12.40;99.90
38209;DHT22;24016;52.102;11.584;2023-09-07T03:42:08;12.40;99.90
38209;DHT22;24016;52.102;11.584;2023-09-07T03:44:34;12.40;99.90
38209;DHT22;24016;52.102;11.584;2023-09-07T03:47:00;12.40;99.90
38209;DHT22;24016;52.102;11.584;2023-09-07T03:49:26;12.30;99.90
38209;DHT22;24016;52.102;11.584;2023-09-07T03:51:52;12.30;99.90
38209;DHT22;24016;52.102;11.584;2023-09-07T03:54:17;12.30;99.90
38209;DHT22;24016;52.102;11.584;2023-09-07T03:56:43;12.30;99.90
38209;DHT22;24016;52.102;11.584;2023-09-07T03:59:08;12.20;99.90
38209;DHT22;24016;52.102;11.584;2023-09-07T04:01:34;12.20;99.90
38209;DHT22;24016;52.102;11.584;2023-09-07T04:03:59;12.20;99.90
38209;DHT22;24016;52.102;11.584;2023-09-07T04:06:25;12.10;99.90
38209;DHT22;24016;52.102;11.584;2023-09-07T04:08:51;12.10;99.90
38209;DHT22;24016;52.102;11.584;2023-09-07T04:11:16;12.10;99.90
38209;DHT22;24016;52.102;11.584;2023-09-07T04:13:42;12.10;99.90
38209;DHT22;24016;52.102;11.584;2023-09-07T04:16:09;12.00;99.90
38209;DHT22;24016;52.102;11.584;2023-09-07T04:18:35;12.00;99.90
38209;DHT22;24016;52.102;11.584;2023-09-07T04:21:07;12.00;99.90
38209;DHT22;24016;52.102;11.584;2023-09-07T04:23:33;12.00;99.90
38209;DHT22;24016;52.102;11.584;2023-09-07T04:26:11;11.90;99.90
38209;DHT22;24016;52.102;11.584;2023-09-07T04:28:37;11.90;99.90
38209;DHT22;24016;52.102;11.584;2023-09-07T04:31:04;11.90;99.90
38209;DHT22;24016;52.102;11.584;2023-09-07T04:33:31;11.90;99.90
38209;DHT22;24016;52.102;11.584;2023-09-07T04:36:07;11.80;99.90
38209;DHT22;24016;52.102;11.584;2023-09-07T04:38:33;11.80;99.90
38209;DHT22;24016;52.102;11.584;2023-09-07T04:41:10;11.90;99.90
38209;DHT22;24016;52.102;11.584;2023-09-07T04:43:36;11.80;99.90
38209;DHT22;24016;52.102;11.584;2023-09-07T04:46:02;11.90;99.90
38209;DHT22;24016;52.102;11.584;2023-09-07T04:48:28;11.90;99.90
38209;DHT22;24016;52.102;11.584;2023-09-07T04:51:01;11.90;99.90
38209;DHT22;24016;52.102;11.584;2023-09-07T04:53:31;11.90;99.90
38209;DHT22;24016;52.102;11.584;2023-09-07T04:55:58;11.90;99.90
38209;DHT22;24016;52.102;11.584;2023-09-07T04:58:24;11.90;99.90
38209;DHT22;24016;52.102;11.584;2023-09-07T05:00:49;11.90;99.90
38209;DHT22;24016;52.102;11.584;2023-09-07T05:03:16;12.00;99.90
38209;DHT22;24016;52.102;11.584;2023-09-07T05:05:42;12.00;99.90
38209;DHT22;24016;52.102;11.584;2023-09-07T05:08:07;12.00;99.90
38209;DHT22;24016;52.102;11.584;2023-09-07T05:10:34;12.10;99.90
38209;DHT22;24016;52.102;11.584;2023-09-07T05:12:59;12.10;99.90
38209;DHT22;24016;52.102;11.584;2023-09-07T05:15:25;12.20;99.90
38209;DHT22;24016;52.102;11.584;2023-09-07T05:17:54;12.20;99.90
38209;DHT22;24016;52.102;11.584;2023-09-07T05:20:20;12.20;99.90
38209;DHT22;24016;52.102;11.584;2023-09-07T05:22:47;12.30;99.90
38209;DHT22;24016;52.102;11.584;2023-09-07T05:25:13;12.40;99.90
38209;DHT22;24016;52.102;11.584;2023-09-07T05:27:39;12.40;99.90
38209;DHT22;24016;52.102;11.584;2023-09-07T05:30:05;12.40;99.90
38209;DHT22;24016;52.102;11.584;2023-09-07T05:32:31;12.50;99.90
38209;DHT22;24016;52.102;11.584;2023-09-07T05:34:57;12.50;99.90
38209;DHT22;24016;52.102;11.584;2023-09-07T05:37:23;12.60;99.90
38209;DHT22;24016;52.102;11.584;2023-09-07T05:39:48;12.60;99.90
38209;DHT22;24016;52.102;11.584;2023-09-07T05:42:15;12.70;99.90
38209;DHT22;24016;52.102;11.584;2023-09-07T05:44:41;12.70;99.90
38209;DHT22;24016;52.102;11.584;2023-09-07T05:47:32;12.70;99.90
38209;DHT22;24016;52.102;11.584;2023-09-07T05:50:04;12.90;99.90
38209;DHT22;24016;52.102;11.584;2023-09-07T05:52:30;12.90;99.90
38209;DHT22;24016;52.102;11.584;2023-09-07T05:54:56;12.90;99.90
38209;DHT22;24016;52.102;11.584;2023-09-07T05:57:21;13.00;99.90
38209;DHT22;24016;52.102;11.584;2023-09-07T05:59:47;13.10;99.90
38209;DHT22;24016;52.102;11.584;2023-09-07T06:02:13;13.10;99.90
38209;DHT22;24016;52.102;11.584;2023-09-07T06:04:38;13.20;99.90
38209;DHT22;24016;52.102;11.584;2023-09-07T06:07:04;13.30;99.90
38209;DHT22;24016;52.102;11.584;2023-09-07T06:09:29;13.30;99.90
38209;DHT22;24016;52.102;11.584;2023-09-07T06:11:55;13.40;99.90
38209;DHT22;24016;52.102;11.584;2023-09-07T06:14:20;13.50;99.90
38209;DHT22;24016;52.102;11.584;2023-09-07T06:16:46;13.60;99.90
38209;DHT22;24016;52.102;11.584;2023-09-07T06:19:11;13.70;99.90
38209;DHT22;24016;52.102;11.584;2023-09-07T06:21:37;13.80;99.90
38209;DHT22;24016;52.102;11.584;2023-09-07T06:24:03;13.80;99.90
38209;DHT22;24016;52.102;11.584;2023-09-07T06:26:28;14.00;99.90
38209;DHT22;24016;52.102;11.584;2023-09-07T06:28:54;14.00;99.90
38209;DHT22;24016;52.102;11.584;2023-09-07T06:31:19;14.20;99.90
38209;DHT22;24016;52.102;11.584;2023-09-07T06:33:45;14.30;99.90
38209;DHT22;24016;52.102;11.584;2023-09-07T06:36:10;14.40;99.90
38209;DHT22;24016;52.102;11.584;2023-09-07T06:38:36;14.50;99.90
38209;DHT22;24016;52.102;11.584;2023-09-07T06:41:01;14.70;99.90
38209;DHT22;24016;52.102;11.584;2023-09-07T06:43:27;14.80;99.90
38209;DHT22;24016;52.102;11.584;2023-09-07T06:45:53;15.00;99.90
38209;DHT22;24016;52.102;11.584;2023-09-07T06:48:19;15.10;99.90
38209;DHT22;24016;52.102;11.584;2023-09-07T06:50:45;15.30;99.90
38209;DHT22;24016;52.102;11.584;2023-09-07T06:53:10;15.50;99.90
38209;DHT22;24016;52.102;11.584;2023-09-07T06:55:36;15.60;99.90
38209;DHT22;24016;52.102;11.584;2023-09-07T06:58:01;15.70;99.90
38209;DHT22;24016;52.102;11.584;2023-09-07T07:00:27;15.90;99.90
38209;DHT22;24016;52.102;11.584;2023-09-07T07:02:53;16.00;99.90
38209;DHT22;24016;52.102;11.584;2023-09-07T07:05:18;16.20;99.90
38209;DHT22;24016;52.102;11.584;2023-09-07T07:07:44;16.40;99.90
38209;DHT22;24016;52.102;11.584;2023-09-07T07:10:09;16.60;99.90
38209;DHT22;24016;52.102;11.584;2023-09-07T07:12:35;16.70;99.90
38209;DHT22;24016;52.102;11.584;2023-09-07T07:15:04;16.90;99.90
38209;DHT22;24016;52.102;11.584;2023-09-07T07:17:29;17.00;99.90
38209;DHT22;24016;52.102;11.584;2023-09-07T07:19:55;17.20;99.90
38209;DHT22;24016;52.102;11.584;2023-09-07T07:22:21;17.50;99.90
38209;DHT22;24016;52.102;11.584;2023-09-07T07:24:46;17.70;99.90
38209;DHT22;24016;52.102;11.584;2023-09-07T07:27:12;17.90;99.90
38209;DHT22;24016;52.102;11.584;2023-09-07T07:29:37;18.00;99.90
38209;DHT22;24016;52.102;11.584;2023-09-07T07:32:04;18.20;99.90
38209;DHT22;24016;52.102;11.584;2023-09-07T07:34:29;18.30;99.90
38209;DHT22;24016;52.102;11.584;2023-09-07T07:36:55;18.40;99.90
38209;DHT22;24016;52.102;11.584;2023-09-07T07:39:20;18.50;99.90
38209;DHT22;24016;52.102;11.584;2023-09-07T07:41:46;18.50;99.90
38209;DHT22;24016;52.102;11.584;2023-09-07T07:44:12;18.50;99.90
38209;DHT22;24016;52.102;11.584;2023-09-07T07:46:37;18.50;99.90
38209;DHT22;24016;52.102;11.584;2023-09-07T07:49:03;18.60;99.90
38209;DHT22;24016;52.102;11.584;2023-09-07T07:51:29;18.70;99.90
38209;DHT22;24016;52.102;11.584;2023-09-07T07:53:55;18.80;99.90
38209;DHT22;24016;52.102;11.584;2023-09-07T07:56:22;18.90;99.90
38209;DHT22;24016;52.102;11.584;2023-09-07T07:58:48;19.00;99.90
38209;DHT22;24016;52.102;11.584;2023-09-07T08:01:18;19.10;99.90
38209;DHT22;24016;52.102;11.584;2023-09-07T08:03:45;19.10;99.90
38209;DHT22;24016;52.102;11.584;2023-09-07T08:06:11;19.30;99.90
38209;DHT22;24016;52.102;11.584;2023-09-07T08:08:38;19.50;99.90
38209;DHT22;24016;52.102;11.584;2023-09-07T08:11:04;19.70;99.90
38209;DHT22;24016;52.102;11.584;2023-09-07T08:13:32;19.90;99.90
38209;DHT22;24016;52.102;11.584;2023-09-07T08:16:00;20.00;99.90
38209;DHT22;24016;52.102;11.584;2023-09-07T08:18:26;20.20;99.90
38209;DHT22;24016;52.102;11.584;2023-09-07T08:20:52;20.30;99.90
38209;DHT22;24016;52.102;11.584;2023-09-07T08:23:18;20.40;99.90
38209;DHT22;24016;52.102;11.584;2023-09-07T08:25:44;20.90;99.90
38209;DHT22;24016;52.102;11.584;2023-09-07T08:28:12;21.70;99.90
38209;DHT22;24016;52.102;11.584;2023-09-07T08:30:38;22.60;99.90
38209;DHT22;24016;52.102;11.584;2023-09-07T08:33:03;23.50;99.90
38209;DHT22;24016;52.102;11.584;2023-09-07T08:35:30;24.00;99.90
38209;DHT22;24016;52.102;11.584;2023-09-07T08:38:00;24.60;99.90
38209;DHT22;24016;52.102;11.584;2023-09-07T08:40:27;25.20;99.90
38209;DHT22;24016;52.102;11.584;2023-09-07T08:42:55;26.00;99.90
38209;DHT22;24016;52.102;11.584;2023-09-07T08:45:22;26.30;99.90
38209;DHT22;24016;52.102;11.584;2023-09-07T08:47:49;26.90;99.90
38209;DHT22;24016;52.102;11.584;2023-09-07T08:50:15;27.30;99.90
38209;DHT22;24016;52.102;11.584;2023-09-07T08:52:43;27.10;99.90
38209;DHT22;24016;52.102;11.584;2023-09-07T08:55:11;26.80;99.90
38209;DHT22;24016;52.102;11.584;2023-09-07T08:57:37;26.60;99.90
38209;DHT22;24016;52.102;11.584;2023-09-07T09:00:03;26.80;99.90
38209;DHT22;24016;52.102;11.584;2023-09-07T09:02:34;26.60;99.90
38209;DHT22;24016;52.102;11.584;2023-09-07T09:05:02;27.10;99.90
38209;DHT22;24016;52.102;11.584;2023-09-07T09:07:30;27.10;99.90
38209;DHT22;24016;52.102;11.584;2023-09-07T09:10:06;27.40;99.90
38209;DHT22;24016;52.102;11.584;2023-09-07T09:12:32;27.30;99.90
38209;DHT22;24016;52.102;11.584;2023-09-07T09:14:59;27.70;99.90
38209;DHT22;24016;52.102;11.584;2023-09-07T09:17:24;27.70;99.90
38209;DHT22;24016;52.102;11.584;2023-09-07T09:19:50;28.00;99.90
38209;DHT22;24016;52.102;11.584;2023-09-07T09:22:16;27.80;99.90
38209;DHT22;24016;52.102;11.584;2023-09-07T09:24:41;27.90;99.90
38209;DHT22;24016;52.102;11.584;2023-09-07T09:27:07;28.00;99.90
38209;DHT22;24016;52.102;11.584;2023-09-07T09:29:33;28.00;99.90
38209;DHT22;24016;52.102;11.584;2023-09-07T09:32:07;28.00;99.90
38209;DHT22;24016;52.102;11.584;2023-09-07T09:34:36;28.20;99.90
38209;DHT22;24016;52.102;11.584;2023-09-07T09:37:03;28.30;99.90
38209;DHT22;24016;52.102;11.584;2023-09-07T09:39:29;28.70;99.90
38209;DHT22;24016;52.102;11.584;2023-09-07T09:41:55;28.60;99.90
38209;DHT22;24016;52.102;11.584;2023-09-07T09:44:22;28.70;99.90
38209;DHT22;24016;52.102;11.584;2023-09-07T09:46:52;29.10;99.90
38209;DHT22;24016;52.102;11.584;2023-09-07T09:49:21;29.00;99.90
38209;DHT22;24016;52.102;11.584;2023-09-07T09:51:49;29.20;99.90
38209;DHT22;24016;52.102;11.584;2023-09-07T09:54:17;29.20;99.90
38209;DHT22;24016;52.102;11.584;2023-09-07T09:56:42;29.40;99.90
38209;DHT22;24016;52.102;11.584;2023-09-07T09:59:08;29.90;99.90
38209;DHT22;24016;52.102;11.584;2023-09-07T10:01:48;30.10;99.90
38209;DHT22;24016;52.102;11.584;2023-09-07T10:04:17;30.20;99.90
38209;DHT22;24016;52.102;11.584;2023-09-07T10:06:54;30.60;99.90
38209;DHT22;24016;52.102;11.584;2023-09-07T10:09:20;30.80;99.90
38209;DHT22;24016;52.102;11.584;2023-09-07T10:11:54;30.70;99.90
38209;DHT22;24016;52.102;11.584;2023-09-07T10:14:20;30.70;99.90
38209;DHT22;24016;52.102;11.584;2023-09-07T10:16:47;30.90;99.90
38209;DHT22;24016;52.102;11.584;2023-09-07T10:19:18;30.40;99.90
38209;DHT22;24016;52.102;11.584;2023-09-07T10:21:44;30.60;99.90
38209;DHT22;24016;52.102;11.584;2023-09-07T10:24:10;30.60;99.90
38209;DHT22;24016;52.102;11.584;2023-09-07T10:26:36;31.30;99.90
38209;DHT22;24016;52.102;11.584;2023-09-07T10:29:02;31.60;99.90
38209;DHT22;24016;52.102;11.584;2023-09-07T10:31:29;31.80;99.90
38209;DHT22;24016;52.102;11.584;2023-09-07T10:34:08;31.90;99.90
38209;DHT22;24016;52.102;11.584;2023-09-07T10:36:35;31.70;99.90
38209;DHT22;24016;52.102;11.584;2023-09-07T10:39:02;31.60;99.90
38209;DHT22;24016;52.102;11.584;2023-09-07T10:41:42;30.90;99.90
38209;DHT22;24016;52.102;11.584;2023-09-07T10:44:08;31.20;99.90
38209;DHT22;24016;52.102;11.584;2023-09-07T10:46:37;31.90;99.90
38209;DHT22;24016;52.102;11.584;2023-09-07T10:49:03;32.20;99.90
38209;DHT22;24016;52.102;11.584;2023-09-07T10:51:28;32.40;99.70
38209;DHT22;24016;52.102;11.584;2023-09-07T10:53:55;31.90;99.80
38209;DHT22;24016;52.102;11.584;2023-09-07T10:56:24;32.10;99.90
38209;DHT22;24016;52.102;11.584;2023-09-07T10:58:54;32.40;99.60
38209;DHT22;24016;52.102;11.584;2023-09-07T11:01:20;33.10;99.10
38209;DHT22;24016;52.102;11.584;2023-09-07T11:03:46;32.50;98.80
38209;DHT22;24016;52.102;11.584;2023-09-07T11:06:17;32.00;99.90
38209;DHT22;24016;52.102;11.584;2023-09-07T11:08:45;32.00;98.90
38209;DHT22;24016;52.102;11.584;2023-09-07T11:11:12;32.50;99.40
38209;DHT22;24016;52.102;11.584;2023-09-07T11:13:38;32.40;99.20
38209;DHT22;24016;52.102;11.584;2023-09-07T11:16:07;32.30;98.70
38209;DHT22;24016;52.102;11.584;2023-09-07T11:18:34;32.30;98.90
38209;DHT22;24016;52.102;11.584;2023-09-07T11:21:02;32.50;98.10
38209;DHT22;24016;52.102;11.584;2023-09-07T11:23:32;32.40;98.90
38209;DHT22;24016;52.102;11.584;2023-09-07T11:26:04;32.70;97.90
38209;DHT22;24016;52.102;11.584;2023-09-07T11:28:31;33.30;98.60
38209;DHT22;24016;52.102;11.584;2023-09-07T11:30:58;34.10;98.40
38209;DHT22;24016;52.102;11.584;2023-09-07T11:33:24;34.40;97.60
38209;DHT22;24016;52.102;11.584;2023-09-07T11:35:50;34.70;97.00
38209;DHT22;24016;52.102;11.584;2023-09-07T11:38:16;34.40;96.20
38209;DHT22;24016;52.102;11.584;2023-09-07T11:40:43;34.40;97.40
38209;DHT22;24016;52.102;11.584;2023-09-07T11:43:17;35.10;96.20
38209;DHT22;24016;52.102;11.584;2023-09-07T11:45:45;34.30;95.90
38209;DHT22;24016;52.102;11.584;2023-09-07T11:48:11;34.40;96.60
38209;DHT22;24016;52.102;11.584;2023-09-07T11:50:38;35.70;95.80
38209;DHT22;24016;52.102;11.584;2023-09-07T11:53:07;35.10;95.60
38209;DHT22;24016;52.102;11.584;2023-09-07T11:55:33;34.80;95.40
38209;DHT22;24016;52.102;11.584;2023-09-07T11:58:00;34.60;95.00
38209;DHT22;24016;52.102;11.584;2023-09-07T12:00:26;34.60;95.00
38209;DHT22;24016;52.102;11.584;2023-09-07T12:02:51;34.70;95.10
38209;DHT22;24016;52.102;11.584;2023-09-07T12:05:17;34.60;95.50
38209;DHT22;24016;52.102;11.584;2023-09-07T12:07:44;34.90;94.60
38209;DHT22;24016;52.102;11.584;2023-09-07T12:10:11;34.80;93.70
38209;DHT22;24016;52.102;11.584;2023-09-07T12:12:37;34.60;93.30
38209;DHT22;24016;52.102;11.584;2023-09-07T12:15:03;34.90;93.70
38209;DHT22;24016;52.102;11.584;2023-09-07T12:17:30;35.00;94.00
38209;DHT22;24016;52.102;11.584;2023-09-07T12:19:55;35.10;93.60
38209;DHT22;24016;52.102;11.584;2023-09-07T12:22:21;35.70;94.00
38209;DHT22;24016;52.102;11.584;2023-09-07T12:24:47;35.40;94.50
38209;DHT22;24016;52.102;11.584;2023-09-07T12:27:12;35.30;93.60
38209;DHT22;24016;52.102;11.584;2023-09-07T12:29:38;34.50;92.70
38209;DHT22;24016;52.102;11.584;2023-09-07T12:32:03;35.10;94.50
38209;DHT22;24016;52.102;11.584;2023-09-07T12:34:29;35.40;94.20
38209;DHT22;24016;52.102;11.584;2023-09-07T12:36:55;35.50;92.80
38209;DHT22;24016;52.102;11.584;2023-09-07T12:39:20;35.60;92.70
38209;DHT22;24016;52.102;11.584;2023-09-07T12:41:46;35.20;93.20
38209;DHT22;24016;52.102;11.584;2023-09-07T12:44:12;35.80;92.40
38209;DHT22;24016;52.102;11.584;2023-09-07T12:46:38;35.40;92.60
38209;DHT22;24016;52.102;11.584;2023-09-07T12:49:04;35.70;91.70
38209;DHT22;24016;52.102;11.584;2023-09-07T12:51:30;35.50;92.10
38209;DHT22;24016;52.102;11.584;2023-09-07T12:53:56;35.10;91.70
38209;DHT22;24016;52.102;11.584;2023-09-07T12:56:27;34.70;92.10
38209;DHT22;24016;52.102;11.584;2023-09-07T12:58:53;34.90;91.50
38209;DHT22;24016;52.102;11.584;2023-09-07T13:01:19;35.80;91.80
38209;DHT22;24016;52.102;11.584;2023-09-07T13:03:45;35.30;91.30
38209;DHT22;24016;52.102;11.584;2023-09-07T13:06:10;34.50;91.20
38209;DHT22;24016;52.102;11.584;2023-09-07T13:08:36;34.20;92.10
38209;DHT22;24016;52.102;11.584;2023-09-07T13:11:02;34.30;91.40
38209;DHT22;24016;52.102;11.584;2023-09-07T13:13:27;34.60;91.30
38209;DHT22;24016;52.102;11.584;2023-09-07T13:15:55;34.70;93.60
38209;DHT22;24016;52.102;11.584;2023-09-07T13:18:21;34.70;92.00
38209;DHT22;24016;52.102;11.584;2023-09-07T13:20:47;34.70;91.50
38209;DHT22;24016;52.102;11.584;2023-09-07T13:23:15;35.20;92.40
38209;DHT22;24016;52.102;11.584;2023-09-07T13:25:41;34.90;91.40
38209;DHT22;24016;52.102;11.584;2023-09-07T13:28:06;35.40;91.10
38209;DHT22;24016;52.102;11.584;2023-09-07T13:30:32;34.90;92.20
38209;DHT22;24016;52.102;11.584;2023-09-07T13:32:57;34.20;91.80
38209;DHT22;24016;52.102;11.584;2023-09-07T13:35:23;34.10;90.90
38209;DHT22;24016;52.102;11.584;2023-09-07T13:37:49;33.40;91.70
38209;DHT22;24016;52.102;11.584;2023-09-07T13:40:14;32.50;91.90
38209;DHT22;24016;52.102;11.584;2023-09-07T13:42:40;31.90;92.30
38209;DHT22;24016;52.102;11.584;2023-09-07T13:45:06;31.20;92.60
38209;DHT22;24016;52.102;11.584;2023-09-07T13:47:32;30.70;92.90
38209;DHT22;24016;52.102;11.584;2023-09-07T13:49:57;30.20;93.40
38209;DHT22;24016;52.102;11.584;2023-09-07T13:52:23;30.10;93.40
38209;DHT22;24016;52.102;11.584;2023-09-07T13:54:48;29.90;93.50
38209;DHT22;24016;52.102;11.584;2023-09-07T13:57:14;29.70;93.60
38209;DHT22;24016;52.102;11.584;2023-09-07T13:59:40;29.60;94.50
38209;DHT22;24016;52.102;11.584;2023-09-07T14:02:05;29.50;94.00
38209;DHT22;24016;52.102;11.584;2023-09-07T14:04:31;29.30;93.70
38209;DHT22;24016;52.102;11.584;2023-09-07T14:06:56;29.20;94.00
38209;DHT22;24016;52.102;11.584;2023-09-07T14:09:22;29.10;94.50
38209;DHT22;24016;52.102;11.584;2023-09-07T14:11:48;29.00;95.00
38209;DHT22;24016;52.102;11.584;2023-09-07T14:14:14;29.00;95.80
38209;DHT22;24016;52.102;11.584;2023-09-07T14:16:40;28.80;94.20
38209;DHT22;24016;52.102;11.584;2023-09-07T14:19:06;28.80;94.50
38209;DHT22;24016;52.102;11.584;2023-09-07T14:21:32;28.70;95.00
38209;DHT22;24016;52.102;11.584;2023-09-07T14:23:57;28.60;94.80
38209;DHT22;24016;52.102;11.584;2023-09-07T14:26:23;28.60;94.60
38209;DHT22;24016;52.102;11.584;2023-09-07T14:28:48;28.50;95.00
38209;DHT22;24016;52.102;11.584;2023-09-07T14:31:14;28.40;95.30
38209;DHT22;24016;52.102;11.584;2023-09-07T14:33:40;28.40;95.90
38209;DHT22;24016;52.102;11.584;2023-09-07T14:36:08;28.30;95.80
38209;DHT22;24016;52.102;11.584;2023-09-07T14:38:35;28.20;96.30
38209;DHT22;24016;52.102;11.584;2023-09-07T14:41:09;28.20;96.10
38209;DHT22;24016;52.102;11.584;2023-09-07T14:43:37;28.10;96.80
38209;DHT22;24016;52.102;11.584;2023-09-07T14:46:03;28.20;96.10
38209;DHT22;24016;52.102;11.584;2023-09-07T14:48:29;28.10;95.90
38209;DHT22;24016;52.102;11.584;2023-09-07T14:50:54;28.10;96.30
38209;DHT22;24016;52.102;11.584;2023-09-07T14:53:20;28.10;95.90
38209;DHT22;24016;52.102;11.584;2023-09-07T14:55:46;28.00;95.80
38209;DHT22;24016;52.102;11.584;2023-09-07T14:58:12;27.90;95.40
38209;DHT22;24016;52.102;11.584;2023-09-07T15:00:38;27.90;96.20
38209;DHT22;24016;52.102;11.584;2023-09-07T15:03:04;27.90;96.10
38209;DHT22;24016;52.102;11.584;2023-09-07T15:05:29;27.80;96.50
38209;DHT22;24016;52.102;11.584;2023-09-07T15:07:55;27.70;96.90
38209;DHT22;24016;52.102;11.584;2023-09-07T15:10:21;27.60;97.00
38209;DHT22;24016;52.102;11.584;2023-09-07T15:12:46;27.50;96.30